ADDS METAR Data INFO
IDs: Format: Raw Decoded Include TAF

Data at: 1509 UTC 29 May 2017

METAR for:KSAT (San Antonio Intl, TX, US)
Text:KSAT 291502Z 11010KT 10SM SCT017 BKN050 OVC250 23/19 A3009 RMK AO2 LTG DSNT SE TSE1458 SHRA NE SE-S TS MOV SE T02280194
Temperature: 22.8°C ( 73°F)
Dewpoint: 19.4°C ( 67°F) [RH = 81%]
Pressure (altimeter):30.09 inches Hg (1019.0 mb)
Winds:from the ESE (110 degrees) at 12 MPH (10 knots; 5.1 m/s)
Visibility:10 or more sm (16+ km)
Ceiling:5000 feet AGL
Clouds: scattered clouds at 1700 feet AGL, broken clouds at 5000 feet AGL, overcast cloud deck at 25000 feet AGL


Page loaded:  15:09 UTC  |   08:09 AM Pacific  |   09:09 AM Mountain  |   10:09 AM Central  |   11:09 AM Eastern

 

ADVISORIES

FORECASTS

FORECASTS

OBSERVATIONS

USER TOOLS

ABOUT US